sensor_id;sensor_type;location;lat;lon;timestamp;pressure;altitude;pressure_sealevel;temperature;humidity
46408;BME280;32110;45.724;21.276;2024-02-26T01:34:48;99780.34;;;7.71;nan
46408;BME280;32110;45.724;21.276;2024-02-26T03:28:50;99767.22;;;6.79;nan
46408;BME280;32110;45.724;21.276;2024-02-26T03:31:15;99763.22;;;6.76;nan
46408;BME280;32110;45.724;21.276;2024-02-26T03:33:41;99743.63;;;6.60;nan
46408;BME280;32110;45.724;21.276;2024-02-26T03:36:06;99776.25;;;6.83;nan
46408;BME280;32110;45.724;21.276;2024-02-26T03:38:33;99776.25;;;6.83;nan
46408;BME280;32110;45.724;21.276;2024-02-26T03:43:24;99767.22;;;6.79;nan
46408;BME280;32110;45.724;21.276;2024-02-26T03:45:49;99758.25;;;6.68;nan
46408;BME280;32110;45.724;21.276;2024-02-26T03:48:15;99774.75;;;6.69;nan
46408;BME280;32110;45.724;21.276;2024-02-26T03:50:40;99774.59;;;6.64;nan
46408;BME280;32110;45.724;21.276;2024-02-26T03:53:06;99775.59;;;6.63;nan
46408;BME280;32110;45.724;21.276;2024-02-26T03:55:34;99767.66;;;6.51;nan
46408;BME280;32110;45.724;21.276;2024-02-26T03:57:59;99783.88;;;6.59;nan
46408;BME280;32110;45.724;21.276;2024-02-26T04:00:25;99768.63;;;6.56;nan
46408;BME280;32110;45.724;21.276;2024-02-26T04:02:51;99758.00;;;6.51;nan
46408;BME280;32110;45.724;21.276;2024-02-26T04:05:16;99770.59;;;6.61;nan
46408;BME280;32110;45.724;21.276;2024-02-26T04:07:42;99762.16;;;6.59;nan
46408;BME280;32110;45.724;21.276;2024-02-26T04:10:11;99747.75;;;6.50;nan
46408;BME280;32110;45.724;21.276;2024-02-26T04:12:40;99767.16;;;6.60;nan
46408;BME280;32110;45.724;21.276;2024-02-26T04:15:06;99763.31;;;6.63;nan
46408;BME280;32110;45.724;21.276;2024-02-26T04:17:32;99749.72;;;6.54;nan
46408;BME280;32110;45.724;21.276;2024-02-26T04:19:57;99754.16;;;6.54;nan
46408;BME280;32110;45.724;21.276;2024-02-26T04:22:23;99753.19;;;6.48;nan
46408;BME280;32110;45.724;21.276;2024-02-26T04:24:49;99763.59;;;6.55;nan
46408;BME280;32110;45.724;21.276;2024-02-26T04:27:14;99758.00;;;6.51;nan
46408;BME280;32110;45.724;21.276;2024-02-26T04:29:40;99748.38;;;6.45;nan
46408;BME280;32110;45.724;21.276;2024-02-26T04:32:05;99752.81;;;6.45;nan
46408;BME280;32110;45.724;21.276;2024-02-26T04:34:31;99754.81;;;6.49;nan
46408;BME280;32110;45.724;21.276;2024-02-26T04:36:57;99758.84;;;6.45;nan
46408;BME280;32110;45.724;21.276;2024-02-26T04:39:22;99766.91;;;6.44;nan
46408;BME280;32110;45.724;21.276;2024-02-26T04:41:48;99760.28;;;6.41;nan
46408;BME280;32110;45.724;21.276;2024-02-26T04:44:13;99769.09;;;6.47;nan
46408;BME280;32110;45.724;21.276;2024-02-26T04:46:39;99753.31;;;6.35;nan
46408;BME280;32110;45.724;21.276;2024-02-26T04:49:04;99755.75;;;6.30;nan
46408;BME280;32110;45.724;21.276;2024-02-26T04:51:29;99730.50;;;6.17;nan
46408;BME280;32110;45.724;21.276;2024-02-26T04:53:55;99760.50;;;6.39;nan
46408;BME280;32110;45.724;21.276;2024-02-26T04:56:21;99766.69;;;6.45;nan
46408;BME280;32110;45.724;21.276;2024-02-26T04:58:47;99758.84;;;6.45;nan
46408;BME280;32110;45.724;21.276;2024-02-26T05:01:13;99762.25;;;6.46;nan
46408;BME280;32110;45.724;21.276;2024-02-26T05:03:38;99756.81;;;6.47;nan
46408;BME280;32110;45.724;21.276;2024-02-26T05:06:05;99753.63;;;6.45;nan
46408;BME280;32110;45.724;21.276;2024-02-26T05:08:30;99735.19;;;6.33;nan
46408;BME280;32110;45.724;21.276;2024-02-26T05:10:56;99753.03;;;6.43;nan
46408;BME280;32110;45.724;21.276;2024-02-26T05:13:22;99746.09;;;6.30;nan
46408;BME280;32110;45.724;21.276;2024-02-26T05:15:47;99756.16;;;6.27;nan
46408;BME280;32110;45.724;21.276;2024-02-26T05:18:15;99757.34;;;6.31;nan
46408;BME280;32110;45.724;21.276;2024-02-26T05:20:40;99736.94;;;6.14;nan
46408;BME280;32110;45.724;21.276;2024-02-26T05:23:06;99753.78;;;6.25;nan
46408;BME280;32110;45.724;21.276;2024-02-26T05:25:31;99761.78;;;6.30;nan
46408;BME280;32110;45.724;21.276;2024-02-26T05:27:57;99752.13;;;6.31;nan
46408;BME280;32110;45.724;21.276;2024-02-26T05:30:22;99765.97;;;6.31;nan
46408;BME280;32110;45.724;21.276;2024-02-26T05:32:48;99762.19;;;6.27;nan
46408;BME280;32110;45.724;21.276;2024-02-26T05:35:13;99762.25;;;6.21;nan
46408;BME280;32110;45.724;21.276;2024-02-26T05:37:40;99762.88;;;6.16;nan
46408;BME280;32110;45.724;21.276;2024-02-26T05:40:06;99757.19;;;6.26;nan
46408;BME280;32110;45.724;21.276;2024-02-26T05:42:31;99773.19;;;6.36;nan
46408;BME280;32110;45.724;21.276;2024-02-26T05:44:57;99756.94;;;6.27;nan
46408;BME280;32110;45.724;21.276;2024-02-26T05:47:22;99766.63;;;6.27;nan
46408;BME280;32110;45.724;21.276;2024-02-26T05:49:48;99783.03;;;6.41;nan
46408;BME280;32110;45.724;21.276;2024-02-26T05:52:14;99794.06;;;6.43;nan
46408;BME280;32110;45.724;21.276;2024-02-26T05:54:39;99794.66;;;6.45;nan
46408;BME280;32110;45.724;21.276;2024-02-26T05:57:05;99793.63;;;6.46;nan
46408;BME280;32110;45.724;21.276;2024-02-26T05:59:30;99796.66;;;6.49;nan
46408;BME280;32110;45.724;21.276;2024-02-26T06:01:55;99809.28;;;6.52;nan
46408;BME280;32110;45.724;21.276;2024-02-26T06:04:21;99794.81;;;6.50;nan
46408;BME280;32110;45.724;21.276;2024-02-26T06:06:46;99797.00;;;6.53;nan
46408;BME280;32110;45.724;21.276;2024-02-26T06:09:12;99796.00;;;6.54;nan
46408;BME280;32110;45.724;21.276;2024-02-26T06:11:38;99814.69;;;6.57;nan
46408;BME280;32110;45.724;21.276;2024-02-26T06:14:03;99791.25;;;6.44;nan
46408;BME280;32110;45.724;21.276;2024-02-26T06:16:29;99797.25;;;6.51;nan
46408;BME280;32110;45.724;21.276;2024-02-26T06:18:54;99788.22;;;6.47;nan
46408;BME280;32110;45.724;21.276;2024-02-26T06:21:20;99790.97;;;6.52;nan
46408;BME280;32110;45.724;21.276;2024-02-26T06:23:45;99795.00;;;6.55;nan
46408;BME280;32110;45.724;21.276;2024-02-26T06:26:11;99798.78;;;6.59;nan
46408;BME280;32110;45.724;21.276;2024-02-26T06:28:36;99794.94;;;6.62;nan
46408;BME280;32110;45.724;21.276;2024-02-26T06:31:05;99789.28;;;6.65;nan
46408;BME280;32110;45.724;21.276;2024-02-26T06:33:31;99803.66;;;6.80;nan
46408;BME280;32110;45.724;21.276;2024-02-26T06:35:56;99810.22;;;6.90;nan
46408;BME280;32110;45.724;21.276;2024-02-26T06:38:22;99807.50;;;6.96;nan
46408;BME280;32110;45.724;21.276;2024-02-26T06:40:47;99805.72;;;6.97;nan
46408;BME280;32110;45.724;21.276;2024-02-26T06:43:12;99815.69;;;7.07;nan
46408;BME280;32110;45.724;21.276;2024-02-26T06:45:38;99828.06;;;7.18;nan
46408;BME280;32110;45.724;21.276;2024-02-26T06:48:03;99819.34;;;7.24;nan
46408;BME280;32110;45.724;21.276;2024-02-26T06:50:29;99824.22;;;7.39;nan
46408;BME280;32110;45.724;21.276;2024-02-26T06:52:54;99832.81;;;7.46;nan
46408;BME280;32110;45.724;21.276;2024-02-26T06:55:20;99839.94;;;7.57;nan
46408;BME280;32110;45.724;21.276;2024-02-26T06:57:45;99844.69;;;7.67;nan
46408;BME280;32110;45.724;21.276;2024-02-26T07:00:11;99828.97;;;7.67;nan
46408;BME280;32110;45.724;21.276;2024-02-26T07:02:42;99830.97;;;7.83;nan
46408;BME280;32110;45.724;21.276;2024-02-26T07:05:08;99828.63;;;7.94;nan
46408;BME280;32110;45.724;21.276;2024-02-26T07:07:34;99836.22;;;8.14;nan
46408;BME280;32110;45.724;21.276;2024-02-26T07:09:59;99825.44;;;8.22;nan
46408;BME280;32110;45.724;21.276;2024-02-26T07:12:29;99796.94;;;8.25;nan
46408;BME280;32110;45.724;21.276;2024-02-26T07:14:54;99824.53;;;8.58;nan
46408;BME280;32110;45.724;21.276;2024-02-26T07:17:20;99843.03;;;8.75;nan
46408;BME280;32110;45.724;21.276;2024-02-26T07:19:45;99820.88;;;8.71;nan
46408;BME280;32110;45.724;21.276;2024-02-26T07:22:11;99841.13;;;8.94;nan
46408;BME280;32110;45.724;21.276;2024-02-26T07:24:36;99822.16;;;8.92;nan
46408;BME280;32110;45.724;21.276;2024-02-26T07:27:02;99836.31;;;9.14;nan
46408;BME280;32110;45.724;21.276;2024-02-26T07:29:27;99832.66;;;9.27;nan
46408;BME280;32110;45.724;21.276;2024-02-26T07:31:53;99848.75;;;9.43;nan
46408;BME280;32110;45.724;21.276;2024-02-26T07:34:18;99824.38;;;9.59;nan
46408;BME280;32110;45.724;21.276;2024-02-26T07:36:43;99832.88;;;9.90;nan
46408;BME280;32110;45.724;21.276;2024-02-26T07:39:09;99823.25;;;9.95;nan
46408;BME280;32110;45.724;21.276;2024-02-26T07:41:35;99835.88;;;10.10;nan
46408;BME280;32110;45.724;21.276;2024-02-26T07:44:00;99842.13;;;10.21;nan
46408;BME280;32110;45.724;21.276;2024-02-26T07:46:26;99840.28;;;10.33;nan
46408;BME280;32110;45.724;21.276;2024-02-26T07:48:51;99842.94;;;10.50;nan
46408;BME280;32110;45.724;21.276;2024-02-26T07:51:17;99835.28;;;10.66;nan
46408;BME280;32110;45.724;21.276;2024-02-26T07:53:42;99844.47;;;10.97;nan
46408;BME280;32110;45.724;21.276;2024-02-26T07:56:09;99831.72;;;11.11;nan
46408;BME280;32110;45.724;21.276;2024-02-26T07:58:34;99839.38;;;11.29;nan
46408;BME280;32110;45.724;21.276;2024-02-26T08:01:00;99812.78;;;11.31;nan
46408;BME280;32110;45.724;21.276;2024-02-26T08:03:25;99795.13;;;11.31;nan
46408;BME280;32110;45.724;21.276;2024-02-26T08:05:51;99834.94;;;11.74;nan
46408;BME280;32110;45.724;21.276;2024-02-26T08:08:17;99839.25;;;11.85;nan
46408;BME280;32110;45.724;21.276;2024-02-26T08:10:42;99843.69;;;12.01;nan
46408;BME280;32110;45.724;21.276;2024-02-26T08:13:08;99833.88;;;12.19;nan
46408;BME280;32110;45.724;21.276;2024-02-26T08:15:35;99843.81;;;12.39;nan
46408;BME280;32110;45.724;21.276;2024-02-26T08:18:02;99830.47;;;12.50;nan
46408;BME280;32110;45.724;21.276;2024-02-26T08:20:29;99834.81;;;12.67;nan
46408;BME280;32110;45.724;21.276;2024-02-26T08:22:55;99832.03;;;12.84;nan
46408;BME280;32110;45.724;21.276;2024-02-26T08:25:20;99830.56;;;12.98;nan
46408;BME280;32110;45.724;21.276;2024-02-26T08:27:46;99825.03;;;13.05;nan
46408;BME280;32110;45.724;21.276;2024-02-26T08:30:16;99833.88;;;13.26;nan
46408;BME280;32110;45.724;21.276;2024-02-26T08:32:48;99834.75;;;13.36;nan
46408;BME280;32110;45.724;21.276;2024-02-26T08:35:14;99831.09;;;13.48;nan
46408;BME280;32110;45.724;21.276;2024-02-26T08:37:40;99842.84;;;13.67;nan
46408;BME280;32110;45.724;21.276;2024-02-26T08:40:06;99841.56;;;13.80;nan
46408;BME280;32110;45.724;21.276;2024-02-26T08:42:32;99837.63;;;13.93;nan
46408;BME280;32110;45.724;21.276;2024-02-26T08:44:57;99837.13;;;14.06;nan
46408;BME280;32110;45.724;21.276;2024-02-26T08:47:25;99833.72;;;14.16;nan
46408;BME280;32110;45.724;21.276;2024-02-26T08:49:51;99821.81;;;14.29;nan
46408;BME280;32110;45.724;21.276;2024-02-26T08:52:16;99829.25;;;14.47;nan
46408;BME280;32110;45.724;21.276;2024-02-26T08:54:42;99836.69;;;14.65;nan
46408;BME280;32110;45.724;21.276;2024-02-26T08:57:07;99832.72;;;14.73;nan
46408;BME280;32110;45.724;21.276;2024-02-26T08:59:33;99834.31;;;14.84;nan
46408;BME280;32110;45.724;21.276;2024-02-26T09:01:58;99827.13;;;14.95;nan
46408;BME280;32110;45.724;21.276;2024-02-26T09:04:23;99831.88;;;15.14;nan
46408;BME280;32110;45.724;21.276;2024-02-26T09:06:49;99827.84;;;15.26;nan
46408;BME280;32110;45.724;21.276;2024-02-26T09:09:14;99833.91;;;15.42;nan
46408;BME280;32110;45.724;21.276;2024-02-26T09:11:40;99826.66;;;15.58;nan
46408;BME280;32110;45.724;21.276;2024-02-26T09:14:05;99821.06;;;15.70;nan
46408;BME280;32110;45.724;21.276;2024-02-26T09:16:31;99833.22;;;15.86;nan
46408;BME280;32110;45.724;21.276;2024-02-26T09:18:57;99828.38;;;15.99;nan
46408;BME280;32110;45.724;21.276;2024-02-26T09:21:22;99821.41;;;16.08;nan
46408;BME280;32110;45.724;21.276;2024-02-26T09:23:50;99820.25;;;16.24;nan
46408;BME280;32110;45.724;21.276;2024-02-26T09:26:16;99824.94;;;16.32;nan
46408;BME280;32110;45.724;21.276;2024-02-26T09:28:42;99814.81;;;16.40;nan
46408;BME280;32110;45.724;21.276;2024-02-26T09:31:07;99812.63;;;16.47;nan
46408;BME280;32110;45.724;21.276;2024-02-26T09:33:33;99810.16;;;16.55;nan
46408;BME280;32110;45.724;21.276;2024-02-26T09:35:59;99813.53;;;16.66;nan
46408;BME280;32110;45.724;21.276;2024-02-26T09:38:28;99814.72;;;16.84;nan
46408;BME280;32110;45.724;21.276;2024-02-26T09:43:22;99784.63;;;16.89;nan
46408;BME280;32110;45.724;21.276;2024-02-26T09:53:09;99798.56;;;17.29;nan
46408;BME280;32110;45.724;21.276;2024-02-26T09:55:36;99803.53;;;17.35;nan
46408;BME280;32110;45.724;21.276;2024-02-26T09:58:01;99814.88;;;17.46;nan
46408;BME280;32110;45.724;21.276;2024-02-26T11:06:54;99663.78;;;18.83;nan
46408;BME280;32110;45.724;21.276;2024-02-26T11:09:22;99712.78;;;18.87;nan
46408;BME280;32110;45.724;21.276;2024-02-26T11:11:50;99692.03;;;18.84;nan
46408;BME280;32110;45.724;21.276;2024-02-26T11:14:20;99686.91;;;18.87;nan
46408;BME280;32110;45.724;21.276;2024-02-26T11:16:47;99702.81;;;18.92;nan
46408;BME280;32110;45.724;21.276;2024-02-26T11:24:12;99695.38;;;19.03;nan
46408;BME280;32110;45.724;21.276;2024-02-26T11:26:43;99700.31;;;19.10;nan
46408;BME280;32110;45.724;21.276;2024-02-26T11:31:39;99715.81;;;19.22;nan
46408;BME280;32110;45.724;21.276;2024-02-26T11:36:32;99695.94;;;19.28;nan
46408;BME280;32110;45.724;21.276;2024-02-26T11:38:58;99694.44;;;19.36;nan
46408;BME280;32110;45.724;21.276;2024-02-26T11:41:23;99692.75;;;19.40;nan
46408;BME280;32110;45.724;21.276;2024-02-26T11:43:59;99728.91;;;19.46;nan
46408;BME280;32110;45.724;21.276;2024-02-26T11:46:27;99679.28;;;19.45;nan
46408;BME280;32110;45.724;21.276;2024-02-26T11:49:02;99680.84;;;19.46;nan
46408;BME280;32110;45.724;21.276;2024-02-26T11:51:32;99688.88;;;19.46;nan
46408;BME280;32110;45.724;21.276;2024-02-26T11:53:58;99676.50;;;19.50;nan
46408;BME280;32110;45.724;21.276;2024-02-26T11:56:24;99668.56;;;19.59;nan
46408;BME280;32110;45.724;21.276;2024-02-26T11:59:01;99659.75;;;19.58;nan
46408;BME280;32110;45.724;21.276;2024-02-26T12:04:05;99773.63;;;19.54;nan
46408;BME280;32110;45.724;21.276;2024-02-26T12:06:38;99658.97;;;19.58;nan
46408;BME280;32110;45.724;21.276;2024-02-26T12:09:05;99668.88;;;19.57;nan
46408;BME280;32110;45.724;21.276;2024-02-26T12:11:30;99662.41;;;19.58;nan
46408;BME280;32110;45.724;21.276;2024-02-26T12:13:56;99715.72;;;19.63;nan
46408;BME280;32110;45.724;21.276;2024-02-26T12:16:38;99701.56;;;19.63;nan
46408;BME280;32110;45.724;21.276;2024-02-26T12:19:05;99704.84;;;19.73;nan
46408;BME280;32110;45.724;21.276;2024-02-26T12:21:36;99700.91;;;19.71;nan
46408;BME280;32110;45.724;21.276;2024-02-26T12:24:12;99711.84;;;19.83;nan
46408;BME280;32110;45.724;21.276;2024-02-26T12:26:39;99717.84;;;19.89;nan
46408;BME280;32110;45.724;21.276;2024-02-26T12:29:05;99716.63;;;19.95;nan
46408;BME280;32110;45.724;21.276;2024-02-26T12:31:32;99710.19;;;19.96;nan
46408;BME280;32110;45.724;21.276;2024-02-26T12:33:58;99653.69;;;19.89;nan
46408;BME280;32110;45.724;21.276;2024-02-26T12:36:24;99674.66;;;19.95;nan
46408;BME280;32110;45.724;21.276;2024-02-26T12:38:53;99726.22;;;19.96;nan
46408;BME280;32110;45.724;21.276;2024-02-26T12:41:18;99652.00;;;19.93;nan
46408;BME280;32110;45.724;21.276;2024-02-26T12:43:44;99643.00;;;19.89;nan
46408;BME280;32110;45.724;21.276;2024-02-26T12:46:11;99777.25;;;20.31;nan
46408;BME280;32110;45.724;21.276;2024-02-26T12:48:38;99705.63;;;19.96;nan
46408;BME280;32110;45.724;21.276;2024-02-26T12:51:04;99709.75;;;20.03;nan
46408;BME280;32110;45.724;21.276;2024-02-26T12:53:31;99701.09;;;19.97;nan
46408;BME280;32110;45.724;21.276;2024-02-26T12:55:57;99708.66;;;20.04;nan
46408;BME280;32110;45.724;21.276;2024-02-26T12:58:23;99712.59;;;20.06;nan
46408;BME280;32110;45.724;21.276;2024-02-26T13:00:54;99714.81;;;20.04;nan
46408;BME280;32110;45.724;21.276;2024-02-26T13:03:21;99710.19;;;19.96;nan
46408;BME280;32110;45.724;21.276;2024-02-26T13:05:48;99711.81;;;20.06;nan
46408;BME280;32110;45.724;21.276;2024-02-26T13:08:20;99714.31;;;20.02;nan
46408;BME280;32110;45.724;21.276;2024-02-26T13:10:46;99715.88;;;20.03;nan
46408;BME280;32110;45.724;21.276;2024-02-26T13:13:15;99719.34;;;20.04;nan
46408;BME280;32110;45.724;21.276;2024-02-26T13:15:43;99714.44;;;19.97;nan
46408;BME280;32110;45.724;21.276;2024-02-26T13:18:13;99722.63;;;20.01;nan
46408;BME280;32110;45.724;21.276;2024-02-26T13:20:40;99720.75;;;20.01;nan
46408;BME280;32110;45.724;21.276;2024-02-26T13:23:07;99709.19;;;19.92;nan
46408;BME280;32110;45.724;21.276;2024-02-26T13:25:33;99723.06;;;19.94;nan
46408;BME280;32110;45.724;21.276;2024-02-26T13:28:13;99727.13;;;19.91;nan
46408;BME280;32110;45.724;21.276;2024-02-26T13:30:41;99710.06;;;19.79;nan
46408;BME280;32110;45.724;21.276;2024-02-26T13:33:12;99722.09;;;19.90;nan
46408;BME280;32110;45.724;21.276;2024-02-26T13:35:39;99732.97;;;19.93;nan
46408;BME280;32110;45.724;21.276;2024-02-26T13:38:05;99709.66;;;19.85;nan
46408;BME280;32110;45.724;21.276;2024-02-26T13:40:31;99712.63;;;19.84;nan
46408;BME280;32110;45.724;21.276;2024-02-26T13:42:57;99725.84;;;19.89;nan
46408;BME280;32110;45.724;21.276;2024-02-26T13:45:22;99718.16;;;19.87;nan
46408;BME280;32110;45.724;21.276;2024-02-26T13:47:48;99724.88;;;19.85;nan
46408;BME280;32110;45.724;21.276;2024-02-26T13:50:13;99728.66;;;19.84;nan
46408;BME280;32110;45.724;21.276;2024-02-26T13:52:39;99714.31;;;19.80;nan
46408;BME280;32110;45.724;21.276;2024-02-26T13:55:04;99724.41;;;19.83;nan
46408;BME280;32110;45.724;21.276;2024-02-26T13:57:30;99724.22;;;19.79;nan
46408;BME280;32110;45.724;21.276;2024-02-26T13:59:56;99730.34;;;19.80;nan
46408;BME280;32110;45.724;21.276;2024-02-26T14:02:21;99733.81;;;19.80;nan
46408;BME280;32110;45.724;21.276;2024-02-26T14:04:47;99733.91;;;19.75;nan
46408;BME280;32110;45.724;21.276;2024-02-26T14:07:13;99724.13;;;19.70;nan
46408;BME280;32110;45.724;21.276;2024-02-26T14:09:39;99731.06;;;19.71;nan
46408;BME280;32110;45.724;21.276;2024-02-26T14:12:04;99738.78;;;19.73;nan
46408;BME280;32110;45.724;21.276;2024-02-26T14:14:30;99734.81;;;19.70;nan
46408;BME280;32110;45.724;21.276;2024-02-26T14:16:58;99732.22;;;19.65;nan
46408;BME280;32110;45.724;21.276;2024-02-26T14:19:25;99738.59;;;19.69;nan
46408;BME280;32110;45.724;21.276;2024-02-26T14:21:51;99743.63;;;19.71;nan
46408;BME280;32110;45.724;21.276;2024-02-26T14:24:16;99738.06;;;19.67;nan
46408;BME280;32110;45.724;21.276;2024-02-26T14:26:42;99742.13;;;19.65;nan
46408;BME280;32110;45.724;21.276;2024-02-26T14:29:07;99736.63;;;19.61;nan
46408;BME280;32110;45.724;21.276;2024-02-26T14:31:33;99743.63;;;19.57;nan
46408;BME280;32110;45.724;21.276;2024-02-26T14:33:58;99732.28;;;19.51;nan
46408;BME280;32110;45.724;21.276;2024-02-26T14:36:24;99735.75;;;19.52;nan
46408;BME280;32110;45.724;21.276;2024-02-26T14:38:50;99731.09;;;19.44;nan
46408;BME280;32110;45.724;21.276;2024-02-26T14:41:15;99744.16;;;19.45;nan
46408;BME280;32110;45.724;21.276;2024-02-26T14:43:41;99738.94;;;19.40;nan
46408;BME280;32110;45.724;21.276;2024-02-26T14:46:07;99747.34;;;19.33;nan
46408;BME280;32110;45.724;21.276;2024-02-26T14:48:33;99737.84;;;19.27;nan
46408;BME280;32110;45.724;21.276;2024-02-26T14:50:59;99738.44;;;19.24;nan
46408;BME280;32110;45.724;21.276;2024-02-26T14:53:25;99748.16;;;19.20;nan
46408;BME280;32110;45.724;21.276;2024-02-26T14:55:50;99747.84;;;19.22;nan
46408;BME280;32110;45.724;21.276;2024-02-26T14:58:16;99735.00;;;19.10;nan
46408;BME280;32110;45.724;21.276;2024-02-26T15:00:42;99744.78;;;19.15;nan
46408;BME280;32110;45.724;21.276;2024-02-26T15:03:07;99759.72;;;19.16;nan
46408;BME280;32110;45.724;21.276;2024-02-26T15:05:33;99756.66;;;19.08;nan
46408;BME280;32110;45.724;21.276;2024-02-26T15:07:59;99743.22;;;19.00;nan
46408;BME280;32110;45.724;21.276;2024-02-26T15:10:25;99752.78;;;19.01;nan
46408;BME280;32110;45.724;21.276;2024-02-26T15:12:50;99751.31;;;18.95;nan
46408;BME280;32110;45.724;21.276;2024-02-26T15:15:19;99763.16;;;18.88;nan
46408;BME280;32110;45.724;21.276;2024-02-26T15:17:45;99759.59;;;18.79;nan
46408;BME280;32110;45.724;21.276;2024-02-26T15:20:11;99766.88;;;18.74;nan
46408;BME280;32110;45.724;21.276;2024-02-26T15:22:36;99769.66;;;18.68;nan
46408;BME280;32110;45.724;21.276;2024-02-26T15:25:02;99759.72;;;18.55;nan
46408;BME280;32110;45.724;21.276;2024-02-26T15:27:27;99769.44;;;18.51;nan
46408;BME280;32110;45.724;21.276;2024-02-26T15:29:53;99770.38;;;18.41;nan
46408;BME280;32110;45.724;21.276;2024-02-26T15:32:23;99775.31;;;18.34;nan
46408;BME280;32110;45.724;21.276;2024-02-26T15:34:55;99779.72;;;18.25;nan
46408;BME280;32110;45.724;21.276;2024-02-26T15:37:21;99786.19;;;18.19;nan
46408;BME280;32110;45.724;21.276;2024-02-26T15:39:47;99774.69;;;18.04;nan
46408;BME280;32110;45.724;21.276;2024-02-26T15:42:13;99784.63;;;17.99;nan
46408;BME280;32110;45.724;21.276;2024-02-26T15:44:38;99791.34;;;17.96;nan
46408;BME280;32110;45.724;21.276;2024-02-26T15:47:05;99787.28;;;17.80;nan
46408;BME280;32110;45.724;21.276;2024-02-26T15:49:31;99789.69;;;17.76;nan
46408;BME280;32110;45.724;21.276;2024-02-26T15:51:57;99790.94;;;17.65;nan
46408;BME280;32110;45.724;21.276;2024-02-26T15:54:23;99803.00;;;17.57;nan
46408;BME280;32110;45.724;21.276;2024-02-26T15:56:48;99793.56;;;17.46;nan
46408;BME280;32110;45.724;21.276;2024-02-26T15:59:14;99684.91;;;16.62;nan
46408;BME280;32110;45.724;21.276;2024-02-26T16:01:39;99806.25;;;17.30;nan
46408;BME280;32110;45.724;21.276;2024-02-26T16:04:05;99793.19;;;17.10;nan
46408;BME280;32110;45.724;21.276;2024-02-26T16:06:38;99811.75;;;17.15;nan
46408;BME280;32110;45.724;21.276;2024-02-26T16:09:05;99794.38;;;16.98;nan
46408;BME280;32110;45.724;21.276;2024-02-26T16:11:30;99816.44;;;16.99;nan
46408;BME280;32110;45.724;21.276;2024-02-26T16:17:04;99803.59;;;16.77;nan
46408;BME280;32110;45.724;21.276;2024-02-26T16:19:33;99790.44;;;16.62;nan
46408;BME280;32110;45.724;21.276;2024-02-26T16:22:00;99801.88;;;16.62;nan
46408;BME280;32110;45.724;21.276;2024-02-26T16:24:26;99813.56;;;16.61;nan
46408;BME280;32110;45.724;21.276;2024-02-26T16:26:51;99818.94;;;16.56;nan
46408;BME280;32110;45.724;21.276;2024-02-26T16:29:17;99815.00;;;16.48;nan
46408;BME280;32110;45.724;21.276;2024-02-26T16:31:42;99809.50;;;16.40;nan
46408;BME280;32110;45.724;21.276;2024-02-26T16:34:08;99824.69;;;16.34;nan
46408;BME280;32110;45.724;21.276;2024-02-26T16:36:33;99818.63;;;16.23;nan
46408;BME280;32110;45.724;21.276;2024-02-26T16:38:59;99817.66;;;16.14;nan
46408;BME280;32110;45.724;21.276;2024-02-26T16:41:25;99828.03;;;16.10;nan
46408;BME280;32110;45.724;21.276;2024-02-26T16:43:50;99821.19;;;15.99;nan
46408;BME280;32110;45.724;21.276;2024-02-26T16:46:16;99826.00;;;15.92;nan
46408;BME280;32110;45.724;21.276;2024-02-26T16:48:42;99839.81;;;15.94;nan
46408;BME280;32110;45.724;21.276;2024-02-26T16:51:08;99825.84;;;15.78;nan
46408;BME280;32110;45.724;21.276;2024-02-26T16:53:33;99836.47;;;15.73;nan
46408;BME280;32110;45.724;21.276;2024-02-26T16:55:59;99830.63;;;15.66;nan
46408;BME280;32110;45.724;21.276;2024-02-26T16:58:27;99841.81;;;15.58;nan
46408;BME280;32110;45.724;21.276;2024-02-26T17:00:53;99842.91;;;15.51;nan
46408;BME280;32110;45.724;21.276;2024-02-26T17:03:18;99842.38;;;15.39;nan
46408;BME280;32110;45.724;21.276;2024-02-26T17:05:44;99847.47;;;15.36;nan
46408;BME280;32110;45.724;21.276;2024-02-26T17:08:10;99853.31;;;15.32;nan
46408;BME280;32110;45.724;21.276;2024-02-26T17:10:38;99853.59;;;15.26;nan
46408;BME280;32110;45.724;21.276;2024-02-26T17:13:04;99849.34;;;15.15;nan
46408;BME280;32110;45.724;21.276;2024-02-26T17:15:29;99863.16;;;15.12;nan
46408;BME280;32110;45.724;21.276;2024-02-26T17:17:55;99827.94;;;14.85;nan
46408;BME280;32110;45.724;21.276;2024-02-26T17:20:20;99860.00;;;14.99;nan
46408;BME280;32110;45.724;21.276;2024-02-26T17:22:46;99855.75;;;14.88;nan
46408;BME280;32110;45.724;21.276;2024-02-26T17:25:11;99857.09;;;14.85;nan
46408;BME280;32110;45.724;21.276;2024-02-26T17:27:39;99857.88;;;14.76;nan
46408;BME280;32110;45.724;21.276;2024-02-26T17:30:05;99850.47;;;14.62;nan
46408;BME280;32110;45.724;21.276;2024-02-26T17:32:31;99854.97;;;14.57;nan
46408;BME280;32110;45.724;21.276;2024-02-26T17:34:57;99866.31;;;14.52;nan
46408;BME280;32110;45.724;21.276;2024-02-26T17:37:22;99854.13;;;14.41;nan
46408;BME280;32110;45.724;21.276;2024-02-26T17:39:48;99875.84;;;14.43;nan
46408;BME280;32110;45.724;21.276;2024-02-26T17:42:14;99865.78;;;14.30;nan
46408;BME280;32110;45.724;21.276;2024-02-26T17:44:41;99886.44;;;14.33;nan
46408;BME280;32110;45.724;21.276;2024-02-26T17:47:08;99888.00;;;14.29;nan
46408;BME280;32110;45.724;21.276;2024-02-26T17:49:34;99886.13;;;14.19;nan
46408;BME280;32110;45.724;21.276;2024-02-26T17:52:00;99887.72;;;14.15;nan
46408;BME280;32110;45.724;21.276;2024-02-26T17:54:26;99886.66;;;14.11;nan
46408;BME280;32110;45.724;21.276;2024-02-26T17:56:53;99883.47;;;14.03;nan
46408;BME280;32110;45.724;21.276;2024-02-26T17:59:18;99887.41;;;13.96;nan
46408;BME280;32110;45.724;21.276;2024-02-26T18:01:44;99893.19;;;13.93;nan
46408;BME280;32110;45.724;21.276;2024-02-26T18:04:09;99901.66;;;13.90;nan
46408;BME280;32110;45.724;21.276;2024-02-26T18:06:34;99896.88;;;13.81;nan
46408;BME280;32110;45.724;21.276;2024-02-26T18:09:00;99899.22;;;13.73;nan